الصفحة الرئيسية
METAR-TAF:

METAR-TAF

مطار :

مطار طوكيو هانيدا الدولي

طوكيو-Haneda, اليابان

دائرة عرض: 35-33N, خط طول: 139-47E, ارتفاع: 5 متر

مراقبة الطقس الحالي

تاريخ ووقت الإصدار 41 دقيقة قبل الساعة 21:30UTC
ريح 6 عقدة من الغرب, الاتجاه يتراوح بين الجنوب الغربي و الشمال الغربي
درجة الحرارة 29°درجة مئوية
الرطوبة 79%
ضغط 1009 hPa
الرؤية 10 كم أو أكثر
الغيوم لا تقل 1500 م ولا وجود لمزنة ركامية السحاب الأسود

METAR: RJTT 212130Z 26006KT 230V320 CAVOK 29/25 Q1009 BECMG TL2300 23005KT RMK A2980

زمن: 07:11 (22:11 UTC)

توقعات

تاريخ ووقت الإصدار 5ساعات و 6 دقيقة قبل الساعة 17:05UTC
التوقعات صالحة من21 الساعة 18 UTC إلى 23 الساعة 00 UTC
ريح 10 عقدة من الجنوب الغربي
الرؤية 10 كم أو أكثر
غيوم قليلة على ارتفاع 1500 قدم
أصبح
من 21 الساعة 22 UTC إلى 22 الساعة 00 UTC
ريح 4 عقدة من الشرق/الجنوب الشرقي
أصبح
من 22 الساعة 03 UTC إلى 22 الساعة 05 UTC
ريح 12 عقدة من الجنوب/الجنوب الغربي
أصبح
من 22 الساعة 15 UTC إلى 22 الساعة 18 UTC
ريح 4 عقدة من الشمال

TAF: RJTT 211705Z 2118/2300 22010KT 9999 FEW015 BECMG 2122/2200 12004KT BECMG 2203/2205 20012KT BECMG 2215/2218 36004KT

أرصاد الطقس والتوقعات من أكثر من 4000 مطار (تقارير الطقس للمطار METAR والتنبؤ بالطقس بالمطارTAF).

المحطات المتاحة هي النقط الصفراء والحمراء على الخريطة.

حرك المؤشر فوق النقطة لمعرفة اسم المحطة.

ثم انقر لمعرفة أرصاد وتوقعات الطقس.

لتغيير الخارطة: اضغط على الأزرار الخضراء مع رمز الصليب الأسود للتكبير. على الزر الأخضر مع شرطة للتصغير، أو على الأسهم الخضراء للخرائط المجاورة.


METAR-TAF: